sensor_id;sensor_type;location;lat;lon;timestamp;temperature;humidity
20881;DHT22;10600;53.096;8.802;2023-02-15T00:00:48;3.80;99.90
20881;DHT22;10600;53.096;8.802;2023-02-15T00:01:49;3.80;99.90
20881;DHT22;10600;53.096;8.802;2023-02-15T00:02:50;3.80;99.90
20881;DHT22;10600;53.096;8.802;2023-02-15T00:03:51;3.80;99.90
20881;DHT22;10600;53.096;8.802;2023-02-15T00:04:51;3.70;99.90
20881;DHT22;10600;53.096;8.802;2023-02-15T00:05:56;3.80;99.90
20881;DHT22;10600;53.096;8.802;2023-02-15T00:06:57;3.70;99.90
20881;DHT22;10600;53.096;8.802;2023-02-15T00:07:57;3.70;99.90
20881;DHT22;10600;53.096;8.802;2023-02-15T00:08:58;3.70;99.90
20881;DHT22;10600;53.096;8.802;2023-02-15T00:09:59;3.70;99.90
20881;DHT22;10600;53.096;8.802;2023-02-15T00:11:10;3.60;99.90
20881;DHT22;10600;53.096;8.802;2023-02-15T00:12:11;3.60;99.90
20881;DHT22;10600;53.096;8.802;2023-02-15T00:13:11;3.60;99.90
20881;DHT22;10600;53.096;8.802;2023-02-15T00:14:18;3.60;99.90
20881;DHT22;10600;53.096;8.802;2023-02-15T00:15:19;3.50;99.90
20881;DHT22;10600;53.096;8.802;2023-02-15T00:16:20;3.50;99.90
20881;DHT22;10600;53.096;8.802;2023-02-15T00:17:21;3.50;99.90
20881;DHT22;10600;53.096;8.802;2023-02-15T00:18:22;3.50;99.90
20881;DHT22;10600;53.096;8.802;2023-02-15T00:19:22;3.50;99.90
20881;DHT22;10600;53.096;8.802;2023-02-15T00:20:23;3.50;99.90
20881;DHT22;10600;53.096;8.802;2023-02-15T00:21:23;3.50;99.90
20881;DHT22;10600;53.096;8.802;2023-02-15T00:22:25;3.50;99.90
20881;DHT22;10600;53.096;8.802;2023-02-15T00:23:26;3.50;99.90
20881;DHT22;10600;53.096;8.802;2023-02-15T00:24:27;3.50;99.90
20881;DHT22;10600;53.096;8.802;2023-02-15T00:25:27;3.50;99.90
20881;DHT22;10600;53.096;8.802;2023-02-15T00:26:28;3.40;99.90
20881;DHT22;10600;53.096;8.802;2023-02-15T00:27:29;3.40;99.90
20881;DHT22;10600;53.096;8.802;2023-02-15T00:28:30;3.40;99.90
20881;DHT22;10600;53.096;8.802;2023-02-15T00:29:31;3.40;99.90
20881;DHT22;10600;53.096;8.802;2023-02-15T00:30:32;3.40;99.90
20881;DHT22;10600;53.096;8.802;2023-02-15T00:31:33;3.40;99.90
20881;DHT22;10600;53.096;8.802;2023-02-15T00:32:34;3.40;99.90
20881;DHT22;10600;53.096;8.802;2023-02-15T00:33:35;3.40;99.90
20881;DHT22;10600;53.096;8.802;2023-02-15T00:34:36;3.30;99.90
20881;DHT22;10600;53.096;8.802;2023-02-15T00:35:36;3.30;99.90
20881;DHT22;10600;53.096;8.802;2023-02-15T00:36:37;3.40;99.90
20881;DHT22;10600;53.096;8.802;2023-02-15T00:37:38;3.40;99.90
20881;DHT22;10600;53.096;8.802;2023-02-15T00:38:39;3.30;99.90
20881;DHT22;10600;53.096;8.802;2023-02-15T00:39:39;3.40;99.90
20881;DHT22;10600;53.096;8.802;2023-02-15T00:40:40;3.40;99.90
20881;DHT22;10600;53.096;8.802;2023-02-15T00:41:40;3.30;99.90
20881;DHT22;10600;53.096;8.802;2023-02-15T00:42:41;3.30;99.90
20881;DHT22;10600;53.096;8.802;2023-02-15T00:43:42;3.30;99.90
20881;DHT22;10600;53.096;8.802;2023-02-15T00:44:42;3.30;99.90
20881;DHT22;10600;53.096;8.802;2023-02-15T00:45:45;3.30;99.90
20881;DHT22;10600;53.096;8.802;2023-02-15T00:46:45;3.30;99.90
20881;DHT22;10600;53.096;8.802;2023-02-15T00:47:46;3.30;99.90
20881;DHT22;10600;53.096;8.802;2023-02-15T00:48:47;3.30;99.90
20881;DHT22;10600;53.096;8.802;2023-02-15T00:49:47;3.30;99.90
20881;DHT22;10600;53.096;8.802;2023-02-15T00:50:53;3.40;99.90
20881;DHT22;10600;53.096;8.802;2023-02-15T00:51:54;3.30;99.90
20881;DHT22;10600;53.096;8.802;2023-02-15T00:52:55;3.40;99.90
20881;DHT22;10600;53.096;8.802;2023-02-15T00:53:55;3.40;99.90
20881;DHT22;10600;53.096;8.802;2023-02-15T00:54:56;3.40;99.90
20881;DHT22;10600;53.096;8.802;2023-02-15T00:55:57;3.40;99.90
20881;DHT22;10600;53.096;8.802;2023-02-15T00:56:58;3.40;99.90
20881;DHT22;10600;53.096;8.802;2023-02-15T00:57:59;3.50;99.90
20881;DHT22;10600;53.096;8.802;2023-02-15T00:58:59;3.50;99.90
20881;DHT22;10600;53.096;8.802;2023-02-15T01:00:00;3.50;99.90
20881;DHT22;10600;53.096;8.802;2023-02-15T01:01:06;3.50;99.90
20881;DHT22;10600;53.096;8.802;2023-02-15T01:02:06;3.50;99.90
20881;DHT22;10600;53.096;8.802;2023-02-15T01:03:07;3.50;99.90
20881;DHT22;10600;53.096;8.802;2023-02-15T01:04:08;3.50;99.90
20881;DHT22;10600;53.096;8.802;2023-02-15T01:05:08;3.50;99.90
20881;DHT22;10600;53.096;8.802;2023-02-15T01:06:10;3.50;99.90
20881;DHT22;10600;53.096;8.802;2023-02-15T01:07:11;3.50;99.90
20881;DHT22;10600;53.096;8.802;2023-02-15T01:08:11;3.50;99.90
20881;DHT22;10600;53.096;8.802;2023-02-15T01:09:12;3.50;99.90
20881;DHT22;10600;53.096;8.802;2023-02-15T01:10:13;3.50;99.90
20881;DHT22;10600;53.096;8.802;2023-02-15T01:11:18;3.50;99.90
20881;DHT22;10600;53.096;8.802;2023-02-15T01:12:28;3.50;99.90
20881;DHT22;10600;53.096;8.802;2023-02-15T01:13:28;3.50;99.90
20881;DHT22;10600;53.096;8.802;2023-02-15T01:14:29;3.50;99.90
20881;DHT22;10600;53.096;8.802;2023-02-15T01:15:29;3.50;99.90
20881;DHT22;10600;53.096;8.802;2023-02-15T01:16:30;3.50;99.90
20881;DHT22;10600;53.096;8.802;2023-02-15T01:17:31;3.50;99.90
20881;DHT22;10600;53.096;8.802;2023-02-15T01:18:32;3.50;99.90
20881;DHT22;10600;53.096;8.802;2023-02-15T01:19:33;3.40;99.90
20881;DHT22;10600;53.096;8.802;2023-02-15T01:20:36;3.40;99.90
20881;DHT22;10600;53.096;8.802;2023-02-15T01:21:39;3.40;99.90
20881;DHT22;10600;53.096;8.802;2023-02-15T01:22:41;3.40;99.90
20881;DHT22;10600;53.096;8.802;2023-02-15T01:23:42;3.40;99.90
20881;DHT22;10600;53.096;8.802;2023-02-15T01:24:42;3.40;99.90
20881;DHT22;10600;53.096;8.802;2023-02-15T01:25:43;3.40;99.90
20881;DHT22;10600;53.096;8.802;2023-02-15T01:26:44;3.40;99.90
20881;DHT22;10600;53.096;8.802;2023-02-15T01:27:45;3.40;99.90
20881;DHT22;10600;53.096;8.802;2023-02-15T01:28:46;3.50;99.90
20881;DHT22;10600;53.096;8.802;2023-02-15T01:29:47;3.40;99.90
20881;DHT22;10600;53.096;8.802;2023-02-15T01:30:47;3.40;99.90
20881;DHT22;10600;53.096;8.802;2023-02-15T01:31:48;3.40;99.90
20881;DHT22;10600;53.096;8.802;2023-02-15T01:32:49;3.40;99.90
20881;DHT22;10600;53.096;8.802;2023-02-15T01:33:50;3.40;99.90
20881;DHT22;10600;53.096;8.802;2023-02-15T01:34:50;3.40;99.90
20881;DHT22;10600;53.096;8.802;2023-02-15T01:35:58;3.40;99.90
20881;DHT22;10600;53.096;8.802;2023-02-15T01:36:58;3.40;99.90
20881;DHT22;10600;53.096;8.802;2023-02-15T01:37:59;3.40;99.90
20881;DHT22;10600;53.096;8.802;2023-02-15T01:39:00;3.50;99.90
20881;DHT22;10600;53.096;8.802;2023-02-15T01:40:02;3.40;99.90
20881;DHT22;10600;53.096;8.802;2023-02-15T01:41:04;3.40;99.90
20881;DHT22;10600;53.096;8.802;2023-02-15T01:42:24;3.40;99.90
20881;DHT22;10600;53.096;8.802;2023-02-15T01:43:42;3.40;99.90
20881;DHT22;10600;53.096;8.802;2023-02-15T01:44:49;3.40;99.90
20881;DHT22;10600;53.096;8.802;2023-02-15T01:45:50;3.40;99.90
20881;DHT22;10600;53.096;8.802;2023-02-15T01:46:53;3.30;99.90
20881;DHT22;10600;53.096;8.802;2023-02-15T01:49:16;3.30;99.90
20881;DHT22;10600;53.096;8.802;2023-02-15T01:51:22;3.30;99.90
20881;DHT22;10600;53.096;8.802;2023-02-15T01:52:24;3.30;99.90
20881;DHT22;10600;53.096;8.802;2023-02-15T01:54:34;3.30;99.90
20881;DHT22;10600;53.096;8.802;2023-02-15T01:55:40;3.30;99.90
20881;DHT22;10600;53.096;8.802;2023-02-15T01:56:43;3.20;99.90
20881;DHT22;10600;53.096;8.802;2023-02-15T01:57:45;3.20;99.90
20881;DHT22;10600;53.096;8.802;2023-02-15T01:58:47;3.20;99.90
20881;DHT22;10600;53.096;8.802;2023-02-15T01:59:53;3.20;99.90
20881;DHT22;10600;53.096;8.802;2023-02-15T02:00:57;3.20;99.90
20881;DHT22;10600;53.096;8.802;2023-02-15T02:01:59;3.20;99.90
20881;DHT22;10600;53.096;8.802;2023-02-15T02:03:01;3.20;99.90
20881;DHT22;10600;53.096;8.802;2023-02-15T02:05:13;3.10;99.90
20881;DHT22;10600;53.096;8.802;2023-02-15T02:06:14;3.10;99.90
20881;DHT22;10600;53.096;8.802;2023-02-15T02:07:17;3.10;99.90
20881;DHT22;10600;53.096;8.802;2023-02-15T02:08:19;3.10;99.90
20881;DHT22;10600;53.096;8.802;2023-02-15T02:09:20;3.00;99.90
20881;DHT22;10600;53.096;8.802;2023-02-15T02:10:22;3.00;99.90
20881;DHT22;10600;53.096;8.802;2023-02-15T02:11:23;3.00;99.90
20881;DHT22;10600;53.096;8.802;2023-02-15T02:12:25;3.00;99.90
20881;DHT22;10600;53.096;8.802;2023-02-15T02:13:26;3.00;99.90
20881;DHT22;10600;53.096;8.802;2023-02-15T02:14:27;2.90;99.90
20881;DHT22;10600;53.096;8.802;2023-02-15T02:24:46;2.70;99.90
20881;DHT22;10600;53.096;8.802;2023-02-15T02:26:15;2.70;99.90
20881;DHT22;10600;53.096;8.802;2023-02-15T02:30:26;2.60;99.90
20881;DHT22;10600;53.096;8.802;2023-02-15T02:34:30;2.50;99.90
20881;DHT22;10600;53.096;8.802;2023-02-15T02:39:18;2.50;99.90
20881;DHT22;10600;53.096;8.802;2023-02-15T02:40:24;2.50;99.90
20881;DHT22;10600;53.096;8.802;2023-02-15T02:41:33;2.50;99.90
20881;DHT22;10600;53.096;8.802;2023-02-15T02:42:40;2.50;99.90
20881;DHT22;10600;53.096;8.802;2023-02-15T02:43:48;2.50;99.90
20881;DHT22;10600;53.096;8.802;2023-02-15T02:44:57;2.50;99.90
20881;DHT22;10600;53.096;8.802;2023-02-15T02:46:05;2.50;99.90
20881;DHT22;10600;53.096;8.802;2023-02-15T02:47:43;2.50;99.90
20881;DHT22;10600;53.096;8.802;2023-02-15T02:48:44;2.50;99.90
20881;DHT22;10600;53.096;8.802;2023-02-15T02:49:45;2.50;99.90
20881;DHT22;10600;53.096;8.802;2023-02-15T02:50:45;2.50;99.90
20881;DHT22;10600;53.096;8.802;2023-02-15T02:51:46;2.50;99.90
20881;DHT22;10600;53.096;8.802;2023-02-15T02:52:49;2.40;99.90
20881;DHT22;10600;53.096;8.802;2023-02-15T02:53:53;2.50;99.90
20881;DHT22;10600;53.096;8.802;2023-02-15T02:54:56;2.50;99.90
20881;DHT22;10600;53.096;8.802;2023-02-15T02:56:01;2.50;99.90
20881;DHT22;10600;53.096;8.802;2023-02-15T02:57:07;2.40;99.90
20881;DHT22;10600;53.096;8.802;2023-02-15T02:59:41;2.50;99.90
20881;DHT22;10600;53.096;8.802;2023-02-15T03:00:55;2.50;99.90
20881;DHT22;10600;53.096;8.802;2023-02-15T03:02:07;2.50;99.90
20881;DHT22;10600;53.096;8.802;2023-02-15T03:04:32;2.50;99.90
20881;DHT22;10600;53.096;8.802;2023-02-15T03:05:39;2.50;99.90
20881;DHT22;10600;53.096;8.802;2023-02-15T03:07:00;2.50;99.90
20881;DHT22;10600;53.096;8.802;2023-02-15T03:08:03;2.50;99.90
20881;DHT22;10600;53.096;8.802;2023-02-15T03:09:14;2.50;99.90
20881;DHT22;10600;53.096;8.802;2023-02-15T03:10:16;2.50;99.90
20881;DHT22;10600;53.096;8.802;2023-02-15T03:11:18;2.40;99.90
20881;DHT22;10600;53.096;8.802;2023-02-15T03:12:36;2.40;99.90
20881;DHT22;10600;53.096;8.802;2023-02-15T03:13:38;2.50;99.90
20881;DHT22;10600;53.096;8.802;2023-02-15T03:14:41;2.40;99.90
20881;DHT22;10600;53.096;8.802;2023-02-15T03:15:44;2.40;99.90
20881;DHT22;10600;53.096;8.802;2023-02-15T03:17:04;2.40;99.90
20881;DHT22;10600;53.096;8.802;2023-02-15T03:18:07;2.40;99.90
20881;DHT22;10600;53.096;8.802;2023-02-15T03:19:21;2.40;99.90
20881;DHT22;10600;53.096;8.802;2023-02-15T03:20:30;2.40;99.90
20881;DHT22;10600;53.096;8.802;2023-02-15T03:22:59;2.30;99.90
20881;DHT22;10600;53.096;8.802;2023-02-15T03:24:12;2.30;99.90
20881;DHT22;10600;53.096;8.802;2023-02-15T03:25:20;2.30;99.90
20881;DHT22;10600;53.096;8.802;2023-02-15T03:26:23;2.30;99.90
20881;DHT22;10600;53.096;8.802;2023-02-15T03:27:29;2.30;99.90
20881;DHT22;10600;53.096;8.802;2023-02-15T03:28:36;2.30;99.90
20881;DHT22;10600;53.096;8.802;2023-02-15T03:29:39;2.20;99.90
20881;DHT22;10600;53.096;8.802;2023-02-15T03:30:43;2.20;99.90
20881;DHT22;10600;53.096;8.802;2023-02-15T03:31:49;2.20;99.90
20881;DHT22;10600;53.096;8.802;2023-02-15T03:32:52;2.20;99.90
20881;DHT22;10600;53.096;8.802;2023-02-15T03:34:00;2.20;99.90
20881;DHT22;10600;53.096;8.802;2023-02-15T03:35:02;2.20;99.90
20881;DHT22;10600;53.096;8.802;2023-02-15T03:36:22;2.20;99.90
20881;DHT22;10600;53.096;8.802;2023-02-15T03:37:47;2.10;99.90
20881;DHT22;10600;53.096;8.802;2023-02-15T03:41:30;2.10;99.90
20881;DHT22;10600;53.096;8.802;2023-02-15T03:42:33;2.10;99.90
20881;DHT22;10600;53.096;8.802;2023-02-15T03:45:02;2.10;99.90
20881;DHT22;10600;53.096;8.802;2023-02-15T03:46:12;2.10;99.90
20881;DHT22;10600;53.096;8.802;2023-02-15T03:47:17;2.00;99.90
20881;DHT22;10600;53.096;8.802;2023-02-15T03:48:21;2.00;99.90
20881;DHT22;10600;53.096;8.802;2023-02-15T03:49:43;2.00;99.90
20881;DHT22;10600;53.096;8.802;2023-02-15T03:50:46;2.00;99.90
20881;DHT22;10600;53.096;8.802;2023-02-15T03:52:06;2.00;99.90
20881;DHT22;10600;53.096;8.802;2023-02-15T03:53:11;2.00;99.90
20881;DHT22;10600;53.096;8.802;2023-02-15T03:55:39;2.00;99.90
20881;DHT22;10600;53.096;8.802;2023-02-15T03:56:41;1.90;99.90
20881;DHT22;10600;53.096;8.802;2023-02-15T03:57:42;1.90;99.90
20881;DHT22;10600;53.096;8.802;2023-02-15T03:59:02;1.90;99.90
20881;DHT22;10600;53.096;8.802;2023-02-15T04:00:23;1.90;99.90
20881;DHT22;10600;53.096;8.802;2023-02-15T04:01:48;1.80;99.90
20881;DHT22;10600;53.096;8.802;2023-02-15T04:04:19;1.80;99.90
20881;DHT22;10600;53.096;8.802;2023-02-15T04:05:20;1.80;99.90
20881;DHT22;10600;53.096;8.802;2023-02-15T04:06:20;1.80;99.90
20881;DHT22;10600;53.096;8.802;2023-02-15T04:07:21;1.70;99.90
20881;DHT22;10600;53.096;8.802;2023-02-15T04:08:22;1.70;99.90
20881;DHT22;10600;53.096;8.802;2023-02-15T04:09:42;1.70;99.90
20881;DHT22;10600;53.096;8.802;2023-02-15T04:11:01;1.70;99.90
20881;DHT22;10600;53.096;8.802;2023-02-15T04:12:02;1.70;99.90
20881;DHT22;10600;53.096;8.802;2023-02-15T04:13:03;1.60;99.90
20881;DHT22;10600;53.096;8.802;2023-02-15T04:14:03;1.60;99.90
20881;DHT22;10600;53.096;8.802;2023-02-15T04:15:24;1.60;99.90
20881;DHT22;10600;53.096;8.802;2023-02-15T04:16:43;1.60;99.90
20881;DHT22;10600;53.096;8.802;2023-02-15T04:17:43;1.60;99.90
20881;DHT22;10600;53.096;8.802;2023-02-15T04:18:44;1.60;99.90
20881;DHT22;10600;53.096;8.802;2023-02-15T04:20:04;1.60;99.90
20881;DHT22;10600;53.096;8.802;2023-02-15T04:21:26;1.50;99.90
20881;DHT22;10600;53.096;8.802;2023-02-15T04:22:45;1.50;99.90
20881;DHT22;10600;53.096;8.802;2023-02-15T04:24:05;1.50;99.90
20881;DHT22;10600;53.096;8.802;2023-02-15T04:25:24;1.50;99.90
20881;DHT22;10600;53.096;8.802;2023-02-15T04:26:25;1.50;99.90
20881;DHT22;10600;53.096;8.802;2023-02-15T04:27:25;1.50;99.90
20881;DHT22;10600;53.096;8.802;2023-02-15T04:28:26;1.50;99.90
20881;DHT22;10600;53.096;8.802;2023-02-15T04:29:27;1.50;99.90
20881;DHT22;10600;53.096;8.802;2023-02-15T04:30:28;1.50;99.90
20881;DHT22;10600;53.096;8.802;2023-02-15T04:31:28;1.50;99.90
20881;DHT22;10600;53.096;8.802;2023-02-15T04:32:29;1.50;99.90
20881;DHT22;10600;53.096;8.802;2023-02-15T04:33:30;1.50;99.90
20881;DHT22;10600;53.096;8.802;2023-02-15T04:34:31;1.50;99.90
20881;DHT22;10600;53.096;8.802;2023-02-15T04:35:31;1.50;99.90
20881;DHT22;10600;53.096;8.802;2023-02-15T04:36:33;1.50;99.90
20881;DHT22;10600;53.096;8.802;2023-02-15T04:37:34;1.50;99.90
20881;DHT22;10600;53.096;8.802;2023-02-15T04:38:35;1.50;99.90
20881;DHT22;10600;53.096;8.802;2023-02-15T04:39:36;1.50;99.90
20881;DHT22;10600;53.096;8.802;2023-02-15T04:40:36;1.50;99.90
20881;DHT22;10600;53.096;8.802;2023-02-15T04:41:37;1.50;99.90
20881;DHT22;10600;53.096;8.802;2023-02-15T04:42:38;1.50;99.90
20881;DHT22;10600;53.096;8.802;2023-02-15T04:43:38;1.40;99.90
20881;DHT22;10600;53.096;8.802;2023-02-15T04:44:39;1.40;99.90
20881;DHT22;10600;53.096;8.802;2023-02-15T04:45:39;1.40;99.90
20881;DHT22;10600;53.096;8.802;2023-02-15T04:46:40;1.40;99.90
20881;DHT22;10600;53.096;8.802;2023-02-15T04:47:41;1.40;99.90
20881;DHT22;10600;53.096;8.802;2023-02-15T04:48:42;1.40;99.90
20881;DHT22;10600;53.096;8.802;2023-02-15T04:49:44;1.40;99.90
20881;DHT22;10600;53.096;8.802;2023-02-15T04:50:44;1.40;99.90
20881;DHT22;10600;53.096;8.802;2023-02-15T04:51:45;1.30;99.90
20881;DHT22;10600;53.096;8.802;2023-02-15T04:52:46;1.30;99.90
20881;DHT22;10600;53.096;8.802;2023-02-15T04:53:46;1.30;99.90
20881;DHT22;10600;53.096;8.802;2023-02-15T04:54:47;1.30;99.90
20881;DHT22;10600;53.096;8.802;2023-02-15T04:55:48;1.30;99.90
20881;DHT22;10600;53.096;8.802;2023-02-15T04:56:48;1.30;99.90
20881;DHT22;10600;53.096;8.802;2023-02-15T04:57:49;1.30;99.90
20881;DHT22;10600;53.096;8.802;2023-02-15T04:58:49;1.30;99.90
20881;DHT22;10600;53.096;8.802;2023-02-15T04:59:50;1.30;99.90
20881;DHT22;10600;53.096;8.802;2023-02-15T05:00:51;1.20;99.90
20881;DHT22;10600;53.096;8.802;2023-02-15T05:01:52;1.20;99.90
20881;DHT22;10600;53.096;8.802;2023-02-15T05:02:52;1.20;99.90
20881;DHT22;10600;53.096;8.802;2023-02-15T05:03:53;1.20;99.90
20881;DHT22;10600;53.096;8.802;2023-02-15T05:04:54;1.20;99.90
20881;DHT22;10600;53.096;8.802;2023-02-15T05:05:55;1.20;99.90
20881;DHT22;10600;53.096;8.802;2023-02-15T05:06:55;1.20;99.90
20881;DHT22;10600;53.096;8.802;2023-02-15T05:07:56;1.20;99.90
20881;DHT22;10600;53.096;8.802;2023-02-15T05:08:56;1.10;99.90
20881;DHT22;10600;53.096;8.802;2023-02-15T05:09:59;1.10;99.90
20881;DHT22;10600;53.096;8.802;2023-02-15T05:11:00;1.10;99.90
20881;DHT22;10600;53.096;8.802;2023-02-15T05:12:00;1.10;99.90
20881;DHT22;10600;53.096;8.802;2023-02-15T05:13:01;1.10;99.90
20881;DHT22;10600;53.096;8.802;2023-02-15T05:14:01;1.10;99.90
20881;DHT22;10600;53.096;8.802;2023-02-15T05:15:02;1.00;99.90
20881;DHT22;10600;53.096;8.802;2023-02-15T05:16:03;1.00;99.90
20881;DHT22;10600;53.096;8.802;2023-02-15T05:17:04;1.00;99.90
20881;DHT22;10600;53.096;8.802;2023-02-15T05:18:05;1.00;99.90
20881;DHT22;10600;53.096;8.802;2023-02-15T05:19:07;1.00;99.90
20881;DHT22;10600;53.096;8.802;2023-02-15T05:20:08;1.00;99.90
20881;DHT22;10600;53.096;8.802;2023-02-15T05:21:09;0.90;99.90
20881;DHT22;10600;53.096;8.802;2023-02-15T05:22:10;0.90;99.90
20881;DHT22;10600;53.096;8.802;2023-02-15T05:23:10;0.90;99.90
20881;DHT22;10600;53.096;8.802;2023-02-15T05:24:11;0.90;99.90
20881;DHT22;10600;53.096;8.802;2023-02-15T05:25:30;0.90;99.90
20881;DHT22;10600;53.096;8.802;2023-02-15T05:26:50;0.80;99.90
20881;DHT22;10600;53.096;8.802;2023-02-15T05:28:12;0.80;99.90
20881;DHT22;10600;53.096;8.802;2023-02-15T05:29:21;0.80;99.90
20881;DHT22;10600;53.096;8.802;2023-02-15T05:30:22;0.80;99.90
20881;DHT22;10600;53.096;8.802;2023-02-15T05:31:23;0.80;99.90
20881;DHT22;10600;53.096;8.802;2023-02-15T05:32:23;0.80;99.90
20881;DHT22;10600;53.096;8.802;2023-02-15T05:33:24;0.80;99.90
20881;DHT22;10600;53.096;8.802;2023-02-15T05:34:25;0.80;99.90
20881;DHT22;10600;53.096;8.802;2023-02-15T05:35:25;0.80;99.90
20881;DHT22;10600;53.096;8.802;2023-02-15T05:36:26;0.80;99.90
20881;DHT22;10600;53.096;8.802;2023-02-15T05:37:26;0.80;99.90
20881;DHT22;10600;53.096;8.802;2023-02-15T05:38:27;0.80;99.90
20881;DHT22;10600;53.096;8.802;2023-02-15T05:39:28;0.80;99.90
20881;DHT22;10600;53.096;8.802;2023-02-15T05:40:28;0.80;99.90
20881;DHT22;10600;53.096;8.802;2023-02-15T05:41:29;0.80;99.90
20881;DHT22;10600;53.096;8.802;2023-02-15T05:42:30;0.70;99.90
20881;DHT22;10600;53.096;8.802;2023-02-15T05:43:31;0.70;99.90
20881;DHT22;10600;53.096;8.802;2023-02-15T05:44:31;0.70;99.90
20881;DHT22;10600;53.096;8.802;2023-02-15T05:45:32;0.80;99.90
20881;DHT22;10600;53.096;8.802;2023-02-15T05:46:33;0.70;99.90
20881;DHT22;10600;53.096;8.802;2023-02-15T05:47:34;0.70;99.90
20881;DHT22;10600;53.096;8.802;2023-02-15T05:48:35;0.80;99.90
20881;DHT22;10600;53.096;8.802;2023-02-15T05:49:35;0.70;99.90
20881;DHT22;10600;53.096;8.802;2023-02-15T05:50:36;0.80;99.90
20881;DHT22;10600;53.096;8.802;2023-02-15T05:51:37;0.80;99.90
20881;DHT22;10600;53.096;8.802;2023-02-15T05:52:37;0.80;99.90
20881;DHT22;10600;53.096;8.802;2023-02-15T05:53:38;0.70;99.90
20881;DHT22;10600;53.096;8.802;2023-02-15T05:54:39;0.80;99.90
20881;DHT22;10600;53.096;8.802;2023-02-15T05:55:40;0.70;99.90
20881;DHT22;10600;53.096;8.802;2023-02-15T05:56:41;0.70;99.90
20881;DHT22;10600;53.096;8.802;2023-02-15T05:57:41;0.70;99.90
20881;DHT22;10600;53.096;8.802;2023-02-15T05:58:42;0.70;99.90
20881;DHT22;10600;53.096;8.802;2023-02-15T05:59:43;0.70;99.90
20881;DHT22;10600;53.096;8.802;2023-02-15T06:00:43;0.70;99.90
20881;DHT22;10600;53.096;8.802;2023-02-15T06:01:44;0.70;99.90
20881;DHT22;10600;53.096;8.802;2023-02-15T06:02:45;0.70;99.90
20881;DHT22;10600;53.096;8.802;2023-02-15T06:03:45;0.70;99.90
20881;DHT22;10600;53.096;8.802;2023-02-15T06:04:46;0.70;99.90
20881;DHT22;10600;53.096;8.802;2023-02-15T06:05:47;0.70;99.90
20881;DHT22;10600;53.096;8.802;2023-02-15T06:06:48;0.70;99.90
20881;DHT22;10600;53.096;8.802;2023-02-15T06:07:48;0.60;99.90
20881;DHT22;10600;53.096;8.802;2023-02-15T06:08:49;0.70;99.90
20881;DHT22;10600;53.096;8.802;2023-02-15T06:09:49;0.60;99.90
20881;DHT22;10600;53.096;8.802;2023-02-15T06:10:50;0.60;99.90
20881;DHT22;10600;53.096;8.802;2023-02-15T06:11:51;0.60;99.90
20881;DHT22;10600;53.096;8.802;2023-02-15T06:12:51;0.70;99.90
20881;DHT22;10600;53.096;8.802;2023-02-15T06:13:52;0.70;99.90
20881;DHT22;10600;53.096;8.802;2023-02-15T06:14:52;0.70;99.90
20881;DHT22;10600;53.096;8.802;2023-02-15T06:15:53;0.70;99.90
20881;DHT22;10600;53.096;8.802;2023-02-15T06:16:54;0.70;99.90
20881;DHT22;10600;53.096;8.802;2023-02-15T06:17:55;0.70;99.90
20881;DHT22;10600;53.096;8.802;2023-02-15T06:18:55;0.70;99.90
20881;DHT22;10600;53.096;8.802;2023-02-15T06:19:56;0.70;99.90
20881;DHT22;10600;53.096;8.802;2023-02-15T06:20:57;0.60;99.90
20881;DHT22;10600;53.096;8.802;2023-02-15T06:21:57;0.60;99.90
20881;DHT22;10600;53.096;8.802;2023-02-15T06:22:58;0.60;99.90
20881;DHT22;10600;53.096;8.802;2023-02-15T06:23:58;0.60;99.90
20881;DHT22;10600;53.096;8.802;2023-02-15T06:24:59;0.60;99.90
20881;DHT22;10600;53.096;8.802;2023-02-15T06:26:00;0.60;99.90
20881;DHT22;10600;53.096;8.802;2023-02-15T06:27:00;0.60;99.90
20881;DHT22;10600;53.096;8.802;2023-02-15T06:28:01;0.60;99.90
20881;DHT22;10600;53.096;8.802;2023-02-15T06:29:02;0.60;99.90
20881;DHT22;10600;53.096;8.802;2023-02-15T06:30:05;0.60;99.90
20881;DHT22;10600;53.096;8.802;2023-02-15T06:31:06;0.60;99.90
20881;DHT22;10600;53.096;8.802;2023-02-15T06:32:07;0.60;99.90
20881;DHT22;10600;53.096;8.802;2023-02-15T06:33:07;0.60;99.90
20881;DHT22;10600;53.096;8.802;2023-02-15T06:34:08;0.60;99.90
20881;DHT22;10600;53.096;8.802;2023-02-15T06:35:09;0.60;99.90
20881;DHT22;10600;53.096;8.802;2023-02-15T06:36:09;0.60;99.90
20881;DHT22;10600;53.096;8.802;2023-02-15T06:37:10;0.60;99.90
20881;DHT22;10600;53.096;8.802;2023-02-15T06:38:11;0.60;99.90
20881;DHT22;10600;53.096;8.802;2023-02-15T06:39:11;0.60;99.90
20881;DHT22;10600;53.096;8.802;2023-02-15T06:40:12;0.60;99.90
20881;DHT22;10600;53.096;8.802;2023-02-15T06:41:13;0.60;99.90
20881;DHT22;10600;53.096;8.802;2023-02-15T06:42:13;0.50;99.90
20881;DHT22;10600;53.096;8.802;2023-02-15T06:43:14;0.50;99.90
20881;DHT22;10600;53.096;8.802;2023-02-15T06:44:15;0.50;99.90
20881;DHT22;10600;53.096;8.802;2023-02-15T06:45:15;0.50;99.90
20881;DHT22;10600;53.096;8.802;2023-02-15T06:46:16;0.50;99.90
20881;DHT22;10600;53.096;8.802;2023-02-15T06:47:17;0.50;99.90
20881;DHT22;10600;53.096;8.802;2023-02-15T06:48:17;0.50;99.90
20881;DHT22;10600;53.096;8.802;2023-02-15T06:49:18;0.50;99.90
20881;DHT22;10600;53.096;8.802;2023-02-15T06:50:19;0.50;99.90
20881;DHT22;10600;53.096;8.802;2023-02-15T06:51:19;0.50;99.90
20881;DHT22;10600;53.096;8.802;2023-02-15T06:52:20;0.60;99.90
20881;DHT22;10600;53.096;8.802;2023-02-15T06:53:21;0.60;99.90
20881;DHT22;10600;53.096;8.802;2023-02-15T06:54:21;0.60;99.90
20881;DHT22;10600;53.096;8.802;2023-02-15T06:55:22;0.60;99.90
20881;DHT22;10600;53.096;8.802;2023-02-15T06:56:22;0.60;99.90
20881;DHT22;10600;53.096;8.802;2023-02-15T06:57:23;0.60;99.90
20881;DHT22;10600;53.096;8.802;2023-02-15T06:58:24;0.60;99.90
20881;DHT22;10600;53.096;8.802;2023-02-15T06:59:24;0.60;99.90
20881;DHT22;10600;53.096;8.802;2023-02-15T07:00:25;0.70;99.90
20881;DHT22;10600;53.096;8.802;2023-02-15T07:01:26;0.70;99.90
20881;DHT22;10600;53.096;8.802;2023-02-15T07:02:26;0.70;99.90
20881;DHT22;10600;53.096;8.802;2023-02-15T07:03:27;0.70;99.90
20881;DHT22;10600;53.096;8.802;2023-02-15T07:04:27;0.70;99.90
20881;DHT22;10600;53.096;8.802;2023-02-15T07:05:33;0.70;99.90
20881;DHT22;10600;53.096;8.802;2023-02-15T07:06:34;0.80;99.90
20881;DHT22;10600;53.096;8.802;2023-02-15T07:07:35;0.80;99.90
20881;DHT22;10600;53.096;8.802;2023-02-15T07:08:37;0.80;99.90
20881;DHT22;10600;53.096;8.802;2023-02-15T07:09:38;0.80;99.90
20881;DHT22;10600;53.096;8.802;2023-02-15T07:10:43;0.80;99.90
20881;DHT22;10600;53.096;8.802;2023-02-15T07:11:44;0.80;99.90
20881;DHT22;10600;53.096;8.802;2023-02-15T07:13:03;0.90;99.90
20881;DHT22;10600;53.096;8.802;2023-02-15T07:14:04;0.90;99.90
20881;DHT22;10600;53.096;8.802;2023-02-15T07:15:05;0.90;99.90
20881;DHT22;10600;53.096;8.802;2023-02-15T07:16:06;0.90;99.90
20881;DHT22;10600;53.096;8.802;2023-02-15T07:17:07;0.90;99.90
20881;DHT22;10600;53.096;8.802;2023-02-15T07:18:07;0.90;99.90
20881;DHT22;10600;53.096;8.802;2023-02-15T07:19:09;0.90;99.90
20881;DHT22;10600;53.096;8.802;2023-02-15T07:20:15;0.90;99.90